Time;durP1;ratioP1;P1;durP2;ratioP2;P2;SDS_P1;SDS_P2;PMS_P1;PMS_P2;Temp;Humidity;BMP_temperature;BMP_pressure;BME280_temperature;BME280_humidity;BME280_pressure;Samples;Min_cycle;Max_cycle;Signal;HPM_P1;HPM_P2
2022/12/30 00:00:58;;;;;;;;;;;6.60;99.90;;;;;;6248394;22;19900;-71
2022/12/30 00:03:24;;;;;;;;;;;6.60;99.90;;;;;;6247964;23;19907;-69
2022/12/30 00:05:50;;;;;;;;;;;6.70;99.90;;;;;;6248613;23;19900;-69
2022/12/30 00:11:00;;;;;;;;;;;6.70;99.90;;;;;;6247963;23;20340;-71
2022/12/30 00:33:08;;;;;;;;;;;6.80;99.90;;;;;;6247671;23;19911;-69
2022/12/30 00:35:38;;;;;;;;;;;6.80;99.90;;;;;;6248059;22;19899;-71
2022/12/30 00:38:04;;;;;;;;;;;6.80;99.90;;;;;;6247648;22;20222;-71
2022/12/30 00:40:29;;;;;;;;;;;6.70;99.90;;;;;;6248243;22;19899;-68
2022/12/30 00:43:10;;;;;;;;;;;6.80;99.90;;;;;;6247947;23;20427;-70
2022/12/30 00:45:37;;;;;;;;;;;6.80;99.90;;;;;;6245698;23;19906;-69
2022/12/30 00:56:16;;;;;;;;;;;6.90;99.90;;;;;;6247846;23;19915;-70
2022/12/30 00:58:41;;;;;;;;;;;6.90;99.90;;;;;;6247769;23;19899;-71
2022/12/30 01:01:07;;;;;;;;;;;7.00;99.90;;;;;;6247417;23;19962;-71
2022/12/30 01:03:32;;;;;;;;;;;7.00;99.90;;;;;;6248088;23;19906;-70
2022/12/30 01:05:58;;;;;;;;;;;7.10;99.90;;;;;;6247394;23;19907;-72
2022/12/30 01:08:23;;;;;;;;;;;7.10;99.90;;;;;;6247336;23;19899;-69
2022/12/30 01:10:49;;;;;;;;;;;7.10;99.90;;;;;;6248007;23;19906;-71
2022/12/30 01:13:14;;;;;;;;;;;7.10;99.90;;;;;;6247527;23;19918;-71
2022/12/30 01:15:40;;;;;;;;;;;7.20;99.90;;;;;;6247301;23;19899;-69
2022/12/30 01:18:05;;;;;;;;;;;7.20;99.90;;;;;;6247582;23;19899;-70
2022/12/30 01:20:31;;;;;;;;;;;7.20;99.90;;;;;;6247237;23;19918;-70
2022/12/30 01:22:56;;;;;;;;;;;7.20;99.90;;;;;;6247081;23;20249;-70
2022/12/30 01:25:22;;;;;;;;;;;7.20;99.90;;;;;;6246919;23;19990;-69
2022/12/30 01:27:50;;;;;;;;;;;7.20;99.90;;;;;;6247169;23;19909;-71
2022/12/30 01:30:16;;;;;;;;;;;7.30;99.90;;;;;;6247495;22;20314;-71
2022/12/30 01:32:41;;;;;;;;;;;7.30;99.90;;;;;;6247024;23;19903;-71
2022/12/30 01:35:07;;;;;;;;;;;7.40;99.90;;;;;;6247482;22;19904;-69
2022/12/30 01:37:33;;;;;;;;;;;7.40;99.90;;;;;;6247121;22;20337;-70
2022/12/30 01:39:58;;;;;;;;;;;7.40;99.90;;;;;;6247073;23;19973;-70
2022/12/30 01:42:25;;;;;;;;;;;7.50;99.90;;;;;;6247044;23;19899;-70
2022/12/30 01:44:59;;;;;;;;;;;7.40;99.90;;;;;;6247383;22;19900;-69
2022/12/30 01:47:25;;;;;;;;;;;7.40;99.90;;;;;;6245185;23;19907;-70
2022/12/30 01:49:52;;;;;;;;;;;7.40;99.90;;;;;;6247298;23;19900;-68
2022/12/30 01:52:19;;;;;;;;;;;7.50;99.90;;;;;;6246955;23;19914;-72
2022/12/30 01:54:45;;;;;;;;;;;7.50;99.90;;;;;;6246938;22;19900;-70
2022/12/30 01:57:11;;;;;;;;;;;7.60;99.90;;;;;;6247597;22;19974;-71
2022/12/30 01:59:37;;;;;;;;;;;7.60;99.90;;;;;;6246918;23;19931;-68
2022/12/30 02:02:03;;;;;;;;;;;7.70;99.90;;;;;;6246937;22;19900;-70
2022/12/30 02:04:29;;;;;;;;;;;7.80;99.90;;;;;;6246890;22;19921;-71
2022/12/30 02:07:06;;;;;;;;;;;7.80;99.90;;;;;;6246846;23;19907;-71
2022/12/30 02:09:32;;;;;;;;;;;7.80;99.90;;;;;;6246685;22;19903;-71
2022/12/30 02:11:58;;;;;;;;;;;7.90;99.90;;;;;;6247038;22;19923;-72
2022/12/30 02:14:25;;;;;;;;;;;7.90;99.90;;;;;;6246719;22;20310;-70
2022/12/30 02:16:56;;;;;;;;;;;7.90;99.90;;;;;;6246727;22;19907;-71
2022/12/30 02:19:40;;;;;;;;;;;8.10;99.90;;;;;;6247426;22;19954;-71
2022/12/30 02:22:14;;;;;;;;;;;8.10;99.90;;;;;;6246950;23;19900;-72
2022/12/30 02:24:58;;;;;;;;;;;8.20;99.90;;;;;;6246389;23;19911;-71
2022/12/30 02:27:26;;;;;;;;;;;8.20;99.90;;;;;;6246588;23;19900;-71
2022/12/30 02:29:52;;;;;;;;;;;8.30;99.90;;;;;;6246608;23;19900;-69
2022/12/30 02:32:36;;;;;;;;;;;8.40;99.90;;;;;;6246519;23;19962;-70
2022/12/30 02:35:11;;;;;;;;;;;8.40;99.90;;;;;;6246948;23;19978;-70
2022/12/30 02:37:41;;;;;;;;;;;8.40;99.90;;;;;;6247032;22;20026;-69
2022/12/30 02:40:18;;;;;;;;;;;8.40;99.90;;;;;;6247306;22;19900;-70
2022/12/30 02:45:51;;;;;;;;;;;8.50;99.90;;;;;;6246604;23;19914;-69
2022/12/30 02:48:21;;;;;;;;;;;8.60;99.90;;;;;;6246864;22;19906;-69
2022/12/30 02:53:34;;;;;;;;;;;8.60;99.90;;;;;;6246436;23;19986;-70
2022/12/30 02:55:59;;;;;;;;;;;8.60;99.90;;;;;;6246817;22;19957;-71
2022/12/30 02:58:26;;;;;;;;;;;8.60;99.90;;;;;;6246461;23;19899;-70
2022/12/30 03:03:57;;;;;;;;;;;8.70;99.90;;;;;;6246492;23;20289;-69
2022/12/30 03:06:31;;;;;;;;;;;8.70;99.90;;;;;;6248785;22;19899;-70
2022/12/30 03:09:02;;;;;;;;;;;8.70;99.90;;;;;;6248501;23;19975;-71
2022/12/30 03:11:32;;;;;;;;;;;8.80;99.90;;;;;;6248474;23;19946;-71
2022/12/30 03:14:01;;;;;;;;;;;8.80;99.90;;;;;;6248418;22;19907;-69
2022/12/30 03:16:34;;;;;;;;;;;8.80;99.90;;;;;;6248453;22;20282;-71
2022/12/30 03:19:02;;;;;;;;;;;8.80;99.90;;;;;;6249152;22;19907;-71
2022/12/30 03:21:28;;;;;;;;;;;8.90;99.90;;;;;;6248351;22;19903;-69
2022/12/30 03:29:28;;;;;;;;;;;9.00;99.90;;;;;;6248428;23;20292;-70
2022/12/30 03:31:54;;;;;;;;;;;9.00;99.90;;;;;;6248745;22;19998;-71
2022/12/30 03:34:20;;;;;;;;;;;9.00;99.90;;;;;;6248245;22;20337;-69
2022/12/30 03:36:47;;;;;;;;;;;9.00;99.90;;;;;;6248285;22;20302;-70
2022/12/30 03:39:19;;;;;;;;;;;9.00;99.90;;;;;;6248304;22;19953;-70
2022/12/30 03:41:46;;;;;;;;;;;9.00;99.90;;;;;;6248899;22;19900;-71
2022/12/30 03:44:11;;;;;;;;;;;9.00;99.90;;;;;;6248187;22;19981;-70
2022/12/30 03:46:39;;;;;;;;;;;9.00;99.90;;;;;;6248952;22;19903;-70
2022/12/30 03:49:05;;;;;;;;;;;8.90;99.90;;;;;;6248562;22;20241;-70
2022/12/30 03:51:30;;;;;;;;;;;8.90;99.90;;;;;;6248501;22;19899;-71
2022/12/30 03:53:56;;;;;;;;;;;9.00;99.90;;;;;;6247947;23;19943;-70
2022/12/30 03:56:21;;;;;;;;;;;9.00;99.90;;;;;;6248364;23;19930;-69
2022/12/30 03:58:47;;;;;;;;;;;9.00;99.90;;;;;;6248041;23;19992;-71
2022/12/30 04:01:12;;;;;;;;;;;9.00;99.90;;;;;;6248329;23;20274;-70
2022/12/30 04:03:38;;;;;;;;;;;9.00;99.90;;;;;;6248039;22;20276;-71
2022/12/30 04:06:04;;;;;;;;;;;9.00;99.90;;;;;;6247933;23;19900;-69
2022/12/30 04:08:30;;;;;;;;;;;9.10;99.90;;;;;;6248293;22;19927;-70
2022/12/30 04:10:56;;;;;;;;;;;9.10;99.90;;;;;;6245978;23;20037;-71
2022/12/30 04:13:21;;;;;;;;;;;9.10;99.90;;;;;;6248149;23;19942;-71
2022/12/30 04:15:48;;;;;;;;;;;9.10;99.90;;;;;;6247643;23;19950;-71
2022/12/30 04:18:14;;;;;;;;;;;9.20;99.90;;;;;;6248200;22;19900;-69
2022/12/30 04:20:39;;;;;;;;;;;9.10;99.90;;;;;;6247836;22;19900;-71
2022/12/30 04:23:05;;;;;;;;;;;9.20;99.90;;;;;;6248090;23;20345;-71
2022/12/30 04:25:30;;;;;;;;;;;9.20;99.90;;;;;;6247557;23;20333;-70
2022/12/30 04:27:56;;;;;;;;;;;9.20;99.90;;;;;;6247754;23;19900;-71
2022/12/30 04:30:21;;;;;;;;;;;9.20;99.90;;;;;;6248093;23;20335;-71
2022/12/30 04:32:47;;;;;;;;;;;9.20;99.90;;;;;;6247566;23;19993;-71
2022/12/30 04:35:13;;;;;;;;;;;9.20;99.90;;;;;;6247681;23;19981;-69
2022/12/30 04:37:38;;;;;;;;;;;9.20;99.90;;;;;;6247991;22;19927;-71
2022/12/30 04:40:04;;;;;;;;;;;9.20;99.90;;;;;;6247652;23;20237;-72
2022/12/30 04:42:29;;;;;;;;;;;9.20;99.90;;;;;;6247633;22;19929;-71
2022/12/30 04:44:55;;;;;;;;;;;9.20;99.90;;;;;;6247919;23;19946;-72
2022/12/30 04:47:20;;;;;;;;;;;9.20;99.90;;;;;;6247493;23;19954;-69
2022/12/30 04:49:46;;;;;;;;;;;9.20;99.90;;;;;;6247522;23;20045;-72
2022/12/30 04:52:11;;;;;;;;;;;9.20;99.90;;;;;;6247754;23;19900;-73
2022/12/30 04:54:37;;;;;;;;;;;9.20;99.90;;;;;;6247484;23;20364;-72
2022/12/30 04:57:02;;;;;;;;;;;9.30;99.90;;;;;;6247791;23;19900;-73
2022/12/30 04:59:28;;;;;;;;;;;9.30;99.90;;;;;;6247474;23;20314;-71
2022/12/30 05:01:53;;;;;;;;;;;9.30;99.90;;;;;;6247780;23;20241;-71
2022/12/30 05:04:19;;;;;;;;;;;9.40;99.90;;;;;;6247404;23;20318;-72
2022/12/30 05:06:45;;;;;;;;;;;9.40;99.90;;;;;;6247371;23;19934;-71
2022/12/30 05:09:10;;;;;;;;;;;9.40;99.90;;;;;;6247386;22;19899;-71
2022/12/30 05:11:35;;;;;;;;;;;9.40;99.90;;;;;;6247292;23;19900;-71
2022/12/30 05:14:01;;;;;;;;;;;9.40;99.90;;;;;;6247537;23;20326;-71
2022/12/30 05:16:26;;;;;;;;;;;9.50;99.90;;;;;;6247307;23;20053;-72
2022/12/30 05:18:52;;;;;;;;;;;9.50;99.90;;;;;;6247300;23;19900;-73
2022/12/30 05:21:17;;;;;;;;;;;9.60;99.90;;;;;;6247606;23;19903;-72
2022/12/30 05:26:27;;;;;;;;;;;9.60;99.90;;;;;;6246915;23;19962;-73
2022/12/30 05:28:52;;;;;;;;;;;9.60;99.90;;;;;;6246771;23;20269;-73
2022/12/30 05:31:18;;;;;;;;;;;9.70;99.90;;;;;;6247144;23;19900;-74
2022/12/30 05:33:45;;;;;;;;;;;9.70;99.90;;;;;;6247756;22;19911;-75
2022/12/30 05:36:11;;;;;;;;;;;9.80;99.90;;;;;;6247443;22;19899;-71
2022/12/30 05:38:36;;;;;;;;;;;9.80;99.90;;;;;;6247090;22;19900;-73
2022/12/30 05:41:02;;;;;;;;;;;9.90;99.90;;;;;;6247724;23;19907;-72
2022/12/30 05:43:27;;;;;;;;;;;9.90;99.90;;;;;;6247045;22;19904;-74
2022/12/30 05:45:53;;;;;;;;;;;9.90;99.90;;;;;;6247032;23;19899;-73
2022/12/30 05:48:18;;;;;;;;;;;9.90;99.90;;;;;;6247373;22;20327;-72
2022/12/30 05:50:47;;;;;;;;;;;9.90;99.90;;;;;;6246980;23;19900;-74
2022/12/30 05:53:12;;;;;;;;;;;9.90;99.90;;;;;;6247221;22;19903;-72
2022/12/30 05:55:38;;;;;;;;;;;9.90;99.90;;;;;;6247261;23;19978;-73
2022/12/30 05:58:03;;;;;;;;;;;9.90;99.90;;;;;;6247566;23;19918;-73
2022/12/30 06:00:29;;;;;;;;;;;9.90;99.90;;;;;;6247211;23;19899;-72
2022/12/30 06:02:55;;;;;;;;;;;9.90;99.90;;;;;;6246865;23;19900;-75
2022/12/30 06:05:21;;;;;;;;;;;10.00;99.90;;;;;;6247176;22;19900;-73
2022/12/30 06:07:46;;;;;;;;;;;10.00;99.90;;;;;;6246837;23;20000;-72
2022/12/30 06:10:12;;;;;;;;;;;10.00;99.90;;;;;;6247136;23;20384;-73
2022/12/30 06:12:37;;;;;;;;;;;10.00;99.90;;;;;;6246633;23;20322;-73
2022/12/30 06:15:03;;;;;;;;;;;10.00;99.90;;;;;;6247396;23;19899;-75
2022/12/30 06:17:28;;;;;;;;;;;10.10;99.90;;;;;;6246781;22;19954;-73
2022/12/30 06:19:54;;;;;;;;;;;10.10;99.90;;;;;;6246680;23;19899;-74
2022/12/30 06:22:19;;;;;;;;;;;10.10;99.90;;;;;;6246818;23;19900;-70
2022/12/30 06:24:45;;;;;;;;;;;10.20;99.90;;;;;;6246611;23;20353;-69
2022/12/30 06:27:10;;;;;;;;;;;10.10;99.90;;;;;;6247064;23;19899;-69
2022/12/30 06:29:36;;;;;;;;;;;10.20;99.90;;;;;;6246661;23;19915;-69
2022/12/30 06:32:01;;;;;;;;;;;10.20;99.90;;;;;;6247001;23;19900;-73
2022/12/30 06:34:27;;;;;;;;;;;10.30;99.90;;;;;;6246493;23;20392;-71
2022/12/30 06:36:52;;;;;;;;;;;10.30;99.90;;;;;;6246562;23;19899;-72
2022/12/30 06:39:18;;;;;;;;;;;10.40;99.90;;;;;;6246488;23;19913;-71
2022/12/30 06:41:43;;;;;;;;;;;10.30;99.90;;;;;;6246553;23;19899;-72
2022/12/30 06:44:09;;;;;;;;;;;10.40;99.90;;;;;;6246813;23;19922;-72
2022/12/30 06:46:34;;;;;;;;;;;10.50;99.90;;;;;;6246487;23;19900;-72
2022/12/30 06:49:00;;;;;;;;;;;10.50;99.90;;;;;;6246506;23;19899;-71
2022/12/30 06:51:25;;;;;;;;;;;10.50;99.90;;;;;;6246464;23;20273;-69
2022/12/30 06:53:51;;;;;;;;;;;10.60;99.90;;;;;;6246736;23;19904;-70
2022/12/30 06:56:16;;;;;;;;;;;10.60;99.90;;;;;;6247199;23;19900;-72
2022/12/30 06:58:42;;;;;;;;;;;10.60;99.90;;;;;;6246470;23;19907;-70
2022/12/30 07:01:07;;;;;;;;;;;10.70;99.90;;;;;;6246824;23;19910;-70
2022/12/30 07:03:33;;;;;;;;;;;10.70;99.90;;;;;;6246470;23;19906;-71
2022/12/30 07:05:58;;;;;;;;;;;10.70;99.90;;;;;;6246775;23;19922;-72
2022/12/30 07:08:24;;;;;;;;;;;10.70;99.90;;;;;;6246441;23;19899;-73
2022/12/30 07:10:49;;;;;;;;;;;10.70;99.90;;;;;;6246414;23;20341;-73
2022/12/30 07:13:15;;;;;;;;;;;10.80;99.90;;;;;;6246701;23;19904;-75
2022/12/30 07:15:40;;;;;;;;;;;10.80;99.90;;;;;;6246411;23;19900;-72
2022/12/30 07:18:06;;;;;;;;;;;10.90;99.90;;;;;;6246473;22;19900;-72
2022/12/30 07:20:31;;;;;;;;;;;10.90;99.90;;;;;;6246305;23;19899;-73
2022/12/30 07:22:57;;;;;;;;;;;10.90;99.90;;;;;;6246583;23;19903;-74
2022/12/30 07:25:22;;;;;;;;;;;10.90;99.90;;;;;;6246113;23;19912;-73
2022/12/30 07:27:48;;;;;;;;;;;11.00;99.90;;;;;;6246691;23;19985;-75
2022/12/30 07:30:13;;;;;;;;;;;11.00;99.90;;;;;;6246282;23;19946;-73
2022/12/30 07:32:39;;;;;;;;;;;11.10;99.90;;;;;;6246526;23;20225;-73
2022/12/30 07:35:07;;;;;;;;;;;11.10;99.90;;;;;;6246250;23;19900;-74
2022/12/30 07:37:33;;;;;;;;;;;11.10;99.90;;;;;;6246629;22;19899;-74
2022/12/30 07:39:59;;;;;;;;;;;11.20;99.90;;;;;;6246297;22;19906;-75
2022/12/30 07:42:24;;;;;;;;;;;11.20;99.90;;;;;;6246606;23;19900;-73
2022/12/30 07:44:50;;;;;;;;;;;11.30;99.90;;;;;;6246235;23;19899;-73
2022/12/30 07:47:15;;;;;;;;;;;11.40;99.90;;;;;;6246560;23;19923;-74
2022/12/30 07:49:41;;;;;;;;;;;11.40;99.90;;;;;;6246224;23;19903;-73
2022/12/30 07:52:06;;;;;;;;;;;11.40;99.90;;;;;;6247605;23;19899;-71
2022/12/30 07:54:32;;;;;;;;;;;11.60;99.90;;;;;;6248429;23;19948;-74
2022/12/30 07:56:57;;;;;;;;;;;11.70;99.90;;;;;;6248056;23;19903;-74
2022/12/30 07:59:23;;;;;;;;;;;11.80;99.90;;;;;;6248422;23;19950;-74
2022/12/30 08:01:48;;;;;;;;;;;11.80;99.90;;;;;;6247975;23;20354;-74
2022/12/30 08:04:14;;;;;;;;;;;11.90;99.90;;;;;;6248703;23;19974;-73
2022/12/30 08:06:39;;;;;;;;;;;12.00;99.90;;;;;;6248292;23;20303;-72
2022/12/30 08:09:05;;;;;;;;;;;12.00;99.90;;;;;;6247994;23;19900;-75
2022/12/30 08:11:31;;;;;;;;;;;12.10;99.90;;;;;;6248371;22;20005;-76
2022/12/30 08:13:56;;;;;;;;;;;12.10;99.90;;;;;;6247888;22;19903;-74
2022/12/30 08:16:22;;;;;;;;;;;12.20;99.90;;;;;;6248167;23;19907;-74
2022/12/30 08:18:47;;;;;;;;;;;12.30;99.90;;;;;;6247819;23;19903;-75
2022/12/30 08:21:14;;;;;;;;;;;12.30;99.90;;;;;;6247796;23;19931;-73
2022/12/30 08:23:39;;;;;;;;;;;12.30;99.90;;;;;;6247792;22;19899;-73
2022/12/30 08:26:06;;;;;;;;;;;12.30;99.90;;;;;;6247288;22;19919;-74
2022/12/30 08:28:32;;;;;;;;;;;12.40;99.90;;;;;;6248085;22;20333;-75
2022/12/30 08:30:57;;;;;;;;;;;12.40;99.90;;;;;;6247712;23;19903;-73
2022/12/30 08:33:23;;;;;;;;;;;12.50;99.90;;;;;;6247948;23;20294;-73
2022/12/30 08:35:48;;;;;;;;;;;12.60;99.90;;;;;;6247563;23;19903;-74
2022/12/30 08:38:13;;;;;;;;;;;12.60;99.90;;;;;;6248014;23;19899;-74
2022/12/30 08:40:39;;;;;;;;;;;12.70;99.90;;;;;;6247593;23;20300;-75
2022/12/30 08:43:04;;;;;;;;;;;12.70;99.90;;;;;;6247912;23;19974;-72
2022/12/30 08:45:30;;;;;;;;;;;12.70;99.90;;;;;;6247589;23;19982;-73
2022/12/30 08:47:55;;;;;;;;;;;12.70;99.90;;;;;;6247592;23;19939;-73
2022/12/30 08:50:21;;;;;;;;;;;12.80;99.90;;;;;;6247875;23;19950;-72
2022/12/30 08:52:47;;;;;;;;;;;12.80;99.90;;;;;;6247463;22;20211;-73
2022/12/30 08:55:12;;;;;;;;;;;12.80;99.90;;;;;;6247512;23;19906;-72
2022/12/30 08:57:38;;;;;;;;;;;12.90;99.90;;;;;;6247510;23;19910;-72
2022/12/30 09:00:04;;;;;;;;;;;12.90;99.90;;;;;;6248216;22;19922;-73
2022/12/30 09:02:30;;;;;;;;;;;12.90;99.90;;;;;;6246798;22;20237;-75
2022/12/30 09:04:55;;;;;;;;;;;13.00;99.90;;;;;;6247387;23;19899;-74
2022/12/30 09:07:21;;;;;;;;;;;13.10;99.90;;;;;;6247793;23;20314;-72
2022/12/30 09:09:46;;;;;;;;;;;13.20;99.90;;;;;;6247346;23;19934;-74
2022/12/30 09:12:11;;;;;;;;;;;13.20;99.90;;;;;;6247286;23;19978;-72
2022/12/30 09:14:37;;;;;;;;;;;13.20;99.90;;;;;;6247654;23;20291;-74
2022/12/30 09:17:02;;;;;;;;;;;13.30;99.90;;;;;;6247264;23;20330;-74
2022/12/30 09:19:28;;;;;;;;;;;13.40;99.90;;;;;;6247632;23;19982;-72
2022/12/30 09:21:54;;;;;;;;;;;13.40;99.90;;;;;;6247207;22;19899;-75
2022/12/30 09:24:19;;;;;;;;;;;13.40;99.90;;;;;;6246985;23;19935;-73
2022/12/30 09:26:45;;;;;;;;;;;13.40;99.90;;;;;;6247936;23;19899;-73
2022/12/30 09:29:11;;;;;;;;;;;13.50;99.90;;;;;;6247225;23;19904;-71
2022/12/30 09:31:37;;;;;;;;;;;13.50;99.90;;;;;;6247912;22;19937;-72
2022/12/30 09:34:04;;;;;;;;;;;13.60;99.90;;;;;;6247023;23;19910;-72
2022/12/30 09:36:29;;;;;;;;;;;13.70;99.90;;;;;;6247146;22;19978;-73
2022/12/30 09:38:55;;;;;;;;;;;13.70;99.90;;;;;;6247418;23;20250;-74
2022/12/30 09:44:40;;;;;;;;;;;13.80;99.90;;;;;;6246744;23;20376;-72
2022/12/30 09:47:08;;;;;;;;;;;13.80;99.90;;;;;;6247356;23;20310;-71
2022/12/30 09:49:37;;;;;;;;;;;13.90;99.90;;;;;;6246982;23;19900;-73
2022/12/30 09:52:16;;;;;;;;;;;14.00;99.90;;;;;;6246906;23;19899;-71
2022/12/30 09:54:45;;;;;;;;;;;14.10;99.90;;;;;;6247382;22;20357;-73
2022/12/30 09:59:57;;;;;;;;;;;14.30;99.90;;;;;;6246980;23;19907;-74
2022/12/30 10:02:27;;;;;;;;;;;14.40;99.90;;;;;;6247603;22;19975;-72
2022/12/30 10:04:53;;;;;;;;;;;14.50;99.90;;;;;;6246857;22;19949;-73
2022/12/30 10:07:37;;;;;;;;;;;14.60;99.90;;;;;;6246800;22;19978;-71
2022/12/30 10:10:06;;;;;;;;;;;14.50;99.90;;;;;;6246803;23;19906;-73
2022/12/30 10:12:37;;;;;;;;;;;14.60;99.90;;;;;;6247030;22;19907;-72
2022/12/30 10:15:17;;;;;;;;;;;14.50;99.90;;;;;;6246641;22;20250;-71
2022/12/30 10:17:50;;;;;;;;;;;14.60;99.90;;;;;;6247135;22;19899;-75
2022/12/30 10:20:35;;;;;;;;;;;14.70;99.90;;;;;;6246783;22;19997;-73
2022/12/30 10:23:09;;;;;;;;;;;14.60;99.90;;;;;;6246523;22;19900;-73
2022/12/30 10:25:40;;;;;;;;;;;14.60;99.90;;;;;;6246670;22;19911;-73
2022/12/30 10:28:08;;;;;;;;;;;14.70;99.90;;;;;;6246638;22;19900;-75
2022/12/30 10:30:36;;;;;;;;;;;14.70;99.90;;;;;;6246679;22;19900;-73
2022/12/30 10:33:04;;;;;;;;;;;14.90;99.90;;;;;;6246549;22;19903;-72
2022/12/30 10:35:31;;;;;;;;;;;15.00;99.90;;;;;;6246941;22;19925;-74
2022/12/30 10:38:16;;;;;;;;;;;15.10;99.90;;;;;;6246877;23;20302;-73
2022/12/30 10:40:57;;;;;;;;;;;15.00;99.90;;;;;;6247020;22;19982;-75
2022/12/30 10:43:22;;;;;;;;;;;15.00;99.90;;;;;;6246546;23;19982;-74
2022/12/30 10:45:57;;;;;;;;;;;15.00;99.90;;;;;;6246538;23;19911;-73
2022/12/30 10:48:34;;;;;;;;;;;15.00;99.90;;;;;;6246877;23;20234;-72
2022/12/30 10:51:00;;;;;;;;;;;15.10;99.90;;;;;;6246776;23;19899;-74
2022/12/30 10:53:27;;;;;;;;;;;15.00;99.90;;;;;;6246231;22;19911;-73
2022/12/30 10:55:52;;;;;;;;;;;15.00;99.90;;;;;;6246328;22;20310;-73
2022/12/30 10:58:53;;;;;;;;;;;15.00;99.90;;;;;;6244959;23;19903;-73
2022/12/30 11:01:31;;;;;;;;;;;14.90;99.90;;;;;;6123367;23;20373;-73
2022/12/30 11:03:58;;;;;;;;;;;14.90;99.90;;;;;;6229619;22;19937;-76
2022/12/30 11:06:37;;;;;;;;;;;14.90;99.90;;;;;;6244025;23;19900;-74
2022/12/30 11:09:11;;;;;;;;;;;14.80;99.90;;;;;;6245684;22;19899;-74
2022/12/30 11:14:44;;;;;;;;;;;15.10;99.90;;;;;;6246382;23;19965;-74
2022/12/30 11:17:31;;;;;;;;;;;15.10;99.90;;;;;;6246873;22;19923;-72
2022/12/30 11:20:04;;;;;;;;;;;15.00;99.90;;;;;;6246330;22;19899;-74
2022/12/30 11:22:29;;;;;;;;;;;14.90;99.90;;;;;;6246636;22;19907;-68
2022/12/30 11:24:57;;;;;;;;;;;15.00;99.90;;;;;;6246175;22;19911;-68
2022/12/30 11:27:48;;;;;;;;;;;15.00;99.90;;;;;;6248570;22;20298;-68
2022/12/30 11:30:25;;;;;;;;;;;15.00;99.90;;;;;;6242392;23;19923;-68
2022/12/30 11:32:52;;;;;;;;;;;15.00;99.90;;;;;;6248244;22;19907;-68
2022/12/30 11:35:34;;;;;;;;;;;15.00;99.90;;;;;;6248349;22;19900;-67
2022/12/30 11:38:00;;;;;;;;;;;15.00;99.90;;;;;;6248675;22;19930;-69
2022/12/30 11:40:35;;;;;;;;;;;15.10;99.90;;;;;;6248219;23;19899;-67
2022/12/30 11:43:04;;;;;;;;;;;15.20;99.90;;;;;;6248875;22;19899;-72
2022/12/30 11:45:29;;;;;;;;;;;15.20;99.90;;;;;;6248214;22;20242;-73
2022/12/30 11:47:55;;;;;;;;;;;15.40;99.90;;;;;;6248462;23;19899;-73
2022/12/30 11:50:21;;;;;;;;;;;15.40;99.90;;;;;;6248198;22;19906;-74
2022/12/30 11:53:01;;;;;;;;;;;15.60;99.90;;;;;;6248083;23;19904;-72
2022/12/30 11:55:26;;;;;;;;;;;15.90;99.90;;;;;;6248142;22;19900;-74
2022/12/30 11:57:56;;;;;;;;;;;15.90;99.90;;;;;;6248081;23;19899;-75
2022/12/30 12:00:40;;;;;;;;;;;15.80;99.90;;;;;;6248384;22;20313;-74
2022/12/30 12:03:12;;;;;;;;;;;15.60;99.90;;;;;;6248478;22;19900;-74
2022/12/30 12:05:42;;;;;;;;;;;15.50;99.90;;;;;;6248757;22;19900;-75
2022/12/30 12:08:22;;;;;;;;;;;15.40;99.90;;;;;;6248013;22;19900;-74
2022/12/30 12:10:52;;;;;;;;;;;15.40;99.90;;;;;;6248338;22;19938;-73
2022/12/30 12:13:36;;;;;;;;;;;15.30;99.90;;;;;;6246333;23;19953;-75
2022/12/30 12:16:03;;;;;;;;;;;15.40;99.90;;;;;;6247887;23;19943;-74
2022/12/30 12:18:38;;;;;;;;;;;15.50;99.90;;;;;;6247879;22;19903;-74
2022/12/30 12:21:33;;;;;;;;;;;15.60;99.90;;;;;;6245966;23;19983;-73
2022/12/30 12:24:20;;;;;;;;;;;15.60;99.90;;;;;;6221415;22;19906;-67
2022/12/30 12:26:58;;;;;;;;;;;15.50;99.90;;;;;;6246282;23;20318;-68
2022/12/30 12:29:24;;;;;;;;;;;15.70;99.90;;;;;;6247779;22;19954;-70
2022/12/30 12:31:53;;;;;;;;;;;15.70;99.90;;;;;;6247804;22;20318;-67
2022/12/30 12:34:37;;;;;;;;;;;15.80;99.90;;;;;;6247662;23;20326;-68
2022/12/30 12:37:08;;;;;;;;;;;16.10;99.90;;;;;;6247525;23;19899;-69
2022/12/30 12:39:36;;;;;;;;;;;16.10;99.90;;;;;;6248001;23;19899;-67
2022/12/30 12:42:09;;;;;;;;;;;16.00;99.90;;;;;;6247607;23;20325;-68
2022/12/30 12:44:45;;;;;;;;;;;16.00;99.90;;;;;;6247686;22;19900;-69
2022/12/30 12:47:21;;;;;;;;;;;16.00;99.90;;;;;;6248394;22;19970;-69
2022/12/30 12:49:53;;;;;;;;;;;15.90;99.90;;;;;;6247710;22;19982;-68
2022/12/30 12:52:21;;;;;;;;;;;15.80;99.90;;;;;;6247464;23;20352;-70
2022/12/30 12:54:46;;;;;;;;;;;15.80;99.90;;;;;;6247518;23;20231;-69
2022/12/30 12:57:23;;;;;;;;;;;16.00;99.90;;;;;;6247488;23;19915;-68
2022/12/30 12:59:48;;;;;;;;;;;16.00;99.90;;;;;;6247883;22;19911;-70
2022/12/30 13:02:14;;;;;;;;;;;16.00;99.90;;;;;;6247822;23;19900;-67
2022/12/30 13:04:42;;;;;;;;;;;15.90;99.90;;;;;;6247494;23;20371;-68
2022/12/30 13:07:08;;;;;;;;;;;16.00;99.90;;;;;;6247695;23;19904;-69
2022/12/30 13:09:33;;;;;;;;;;;16.10;99.90;;;;;;6247712;23;19982;-69
2022/12/30 13:12:01;;;;;;;;;;;16.10;99.90;;;;;;6247349;23;20314;-71
2022/12/30 13:14:36;;;;;;;;;;;16.10;99.90;;;;;;6247564;23;20214;-70
2022/12/30 13:17:04;;;;;;;;;;;16.20;99.90;;;;;;6247357;23;19974;-68
2022/12/30 13:19:36;;;;;;;;;;;16.30;99.90;;;;;;6247356;22;19953;-70
2022/12/30 13:22:04;;;;;;;;;;;16.20;99.90;;;;;;6247214;22;19978;-67
2022/12/30 13:24:32;;;;;;;;;;;16.20;99.90;;;;;;6247308;22;19915;-71
2022/12/30 13:26:58;;;;;;;;;;;16.30;99.90;;;;;;6247219;23;19969;-72
2022/12/30 13:29:31;;;;;;;;;;;16.40;99.90;;;;;;6247890;22;19923;-71
2022/12/30 13:32:17;;;;;;;;;;;16.40;99.90;;;;;;6247148;22;19900;-72
2022/12/30 13:34:46;;;;;;;;;;;16.50;99.90;;;;;;6225867;22;19903;-72
2022/12/30 13:37:19;;;;;;;;;;;16.40;99.90;;;;;;6247834;22;19899;-72
2022/12/30 13:40:05;;;;;;;;;;;16.40;99.90;;;;;;6247150;22;20245;-72
2022/12/30 13:42:33;;;;;;;;;;;16.10;99.90;;;;;;6247826;22;19954;-74
2022/12/30 13:44:59;;;;;;;;;;;16.10;99.90;;;;;;6245264;23;20245;-74
2022/12/30 13:47:35;;;;;;;;;;;16.10;99.90;;;;;;6247399;22;19900;-71
2022/12/30 13:50:11;;;;;;;;;;;16.00;99.90;;;;;;6246736;22;19900;-72
2022/12/30 13:52:42;;;;;;;;;;;15.80;99.90;;;;;;6247611;22;19931;-72
2022/12/30 13:55:16;;;;;;;;;;;15.70;99.90;;;;;;6245049;23;20283;-72
2022/12/30 13:57:42;;;;;;;;;;;15.60;99.90;;;;;;6247675;22;19899;-71
2022/12/30 14:00:24;;;;;;;;;;;15.60;99.90;;;;;;6246921;22;19949;-72
2022/12/30 14:03:13;;;;;;;;;;;15.70;99.90;;;;;;6247283;22;19907;-73
2022/12/30 14:05:39;;;;;;;;;;;15.70;99.90;;;;;;6247324;22;19977;-72
2022/12/30 14:08:20;;;;;;;;;;;15.70;99.90;;;;;;6247497;23;20310;-73
2022/12/30 14:10:54;;;;;;;;;;;15.40;99.90;;;;;;6246936;22;19903;-72
2022/12/30 14:13:25;;;;;;;;;;;15.30;99.90;;;;;;6246688;23;19907;-72
2022/12/30 14:15:52;;;;;;;;;;;15.30;99.90;;;;;;6246781;23;19899;-73
2022/12/30 14:18:24;;;;;;;;;;;15.40;99.90;;;;;;6247107;23;19963;-72
2022/12/30 14:20:57;;;;;;;;;;;15.30;99.90;;;;;;6247155;22;19899;-72
2022/12/30 14:23:48;;;;;;;;;;;15.30;99.90;;;;;;6246704;22;19899;-71
2022/12/30 14:26:17;;;;;;;;;;;15.20;99.90;;;;;;6237584;23;19919;-72
2022/12/30 14:28:43;;;;;;;;;;;15.20;99.90;;;;;;6246663;23;19906;-75
2022/12/30 14:31:23;;;;;;;;;;;15.10;99.90;;;;;;6247069;22;19927;-73
2022/12/30 14:33:49;;;;;;;;;;;15.00;99.90;;;;;;6246892;22;20332;-73
2022/12/30 14:36:15;;;;;;;;;;;15.10;99.90;;;;;;6246609;22;19899;-72
2022/12/30 14:38:46;;;;;;;;;;;15.10;99.90;;;;;;6246499;23;19899;-72
2022/12/30 14:41:19;;;;;;;;;;;15.10;99.90;;;;;;6246634;22;19903;-72
2022/12/30 14:43:53;;;;;;;;;;;15.10;99.90;;;;;;6247338;22;19903;-73
2022/12/30 14:46:41;;;;;;;;;;;15.10;99.90;;;;;;6244729;23;20300;-74
2022/12/30 14:49:24;;;;;;;;;;;15.10;99.90;;;;;;6247269;23;19982;-74
2022/12/30 14:51:56;;;;;;;;;;;15.00;99.90;;;;;;6246482;23;19904;-73
2022/12/30 14:54:26;;;;;;;;;;;15.00;99.90;;;;;;6246469;22;19903;-72
2022/12/30 14:56:54;;;;;;;;;;;14.80;99.90;;;;;;6246889;22;19987;-73
2022/12/30 14:59:21;;;;;;;;;;;14.80;99.90;;;;;;6247309;22;20006;-72
2022/12/30 15:02:09;;;;;;;;;;;14.70;99.90;;;;;;6248627;22;20211;-73
2022/12/30 15:04:35;;;;;;;;;;;14.70;99.90;;;;;;6232408;23;19913;-72
2022/12/30 15:07:01;;;;;;;;;;;14.60;99.90;;;;;;6248583;23;19899;-73
2022/12/30 15:09:26;;;;;;;;;;;14.50;99.90;;;;;;6248901;22;20233;-72
2022/12/30 15:11:54;;;;;;;;;;;14.50;99.90;;;;;;6248927;22;20329;-72
2022/12/30 15:14:19;;;;;;;;;;;14.50;99.90;;;;;;6248420;22;19910;-73
2022/12/30 15:16:45;;;;;;;;;;;14.50;99.90;;;;;;6248504;23;19931;-71
2022/12/30 15:19:26;;;;;;;;;;;14.60;99.90;;;;;;6248444;23;19990;-74
2022/12/30 15:21:52;;;;;;;;;;;14.60;99.90;;;;;;6248796;22;19899;-72
2022/12/30 15:24:18;;;;;;;;;;;14.60;99.90;;;;;;6248197;22;19915;-72
2022/12/30 15:26:43;;;;;;;;;;;14.50;99.90;;;;;;6248881;22;20309;-72